Time,TemperatureF,DewpointF,PressureIn,WindDirection,WindDirectionDegrees,WindSpeedMPH,WindSpeedGustMPH,Humidity,HourlyPrecipIn,Conditions,Clouds,dailyrainin,SoftwareType,DateUTC
2013-05-09 00:00:00,59.1,57.7,29.93,SE,132,0.0,0.0,95,0.00,,,0.00,VWS V14.01,2013-05-09 04:00:00,
2013-05-09 00:01:00,59.1,57.7,29.93,SE,132,0.0,0.0,95,0.00,,,0.00,VWS V14.01,2013-05-09 04:01:00,
2013-05-09 00:02:00,59.1,57.7,29.93,SE,132,0.0,0.0,95,0.00,,,0.00,VWS V14.01,2013-05-09 04:02:00,
2013-05-09 00:07:00,59.0,57.9,29.93,SE,132,0.0,0.0,96,0.00,,,0.00,VWS V14.01,2013-05-09 04:07:00,
2013-05-09 00:12:00,58.9,57.8,29.93,SE,132,0.0,0.0,96,0.00,,,0.00,VWS V14.01,2013-05-09 04:12:00,
2013-05-09 00:17:00,58.9,57.8,29.93,SE,132,0.0,0.0,96,0.00,,,0.00,VWS V14.01,2013-05-09 04:17:00,
2013-05-09 00:22:00,58.8,57.7,29.93,SE,132,0.0,0.0,96,0.00,,,0.00,VWS V14.01,2013-05-09 04:22:00,
2013-05-09 00:27:00,58.9,57.8,29.93,SE,132,0.0,0.0,96,0.00,,,0.00,VWS V14.01,2013-05-09 04:27:00,
2013-05-09 00:32:00,58.9,57.8,29.93,SE,132,0.0,0.0,96,0.00,,,0.00,VWS V14.01,2013-05-09 04:32:00,
2013-05-09 00:38:00,58.9,57.8,29.93,SE,132,0.0,0.0,96,0.00,,,0.00,VWS V14.01,2013-05-09 04:38:00,
2013-05-09 00:43:00,59.0,57.9,29.93,SE,132,0.0,1.0,96,0.00,,,0.00,VWS V14.01,2013-05-09 04:43:00,
2013-05-09 00:48:00,59.0,57.9,29.92,SE,132,0.0,0.0,96,0.00,,,0.00,VWS V14.01,2013-05-09 04:48:00,
2013-05-09 00:53:00,59.0,58.2,29.92,SE,132,0.0,0.0,97,0.00,,,0.00,VWS V14.01,2013-05-09 04:53:00,
2013-05-09 00:58:00,59.0,58.2,29.92,SE,132,0.0,0.0,97,0.00,,,0.00,VWS V14.01,2013-05-09 04:58:00,
2013-05-09 01:03:00,58.9,58.0,29.92,SE,133,1.0,1.0,97,0.01,,,0.01,VWS V14.01,2013-05-09 05:03:00,
2013-05-09 01:08:00,58.9,58.0,29.92,NW,317,0.0,0.0,97,0.01,,,0.01,VWS V14.01,2013-05-09 05:08:00,
2013-05-09 01:13:00,58.8,58.0,29.91,NW,317,0.0,0.0,97,0.01,,,0.01,VWS V14.01,2013-05-09 05:13:00,
2013-05-09 01:18:00,58.7,57.8,29.91,NW,317,0.0,0.0,97,0.01,,,0.01,VWS V14.01,2013-05-09 05:18:00,
2013-05-09 01:23:00,58.6,57.8,29.91,NW,317,0.0,0.0,97,0.01,,,0.01,VWS V14.01,2013-05-09 05:23:00,
2013-05-09 01:28:00,58.6,57.8,29.91,NW,317,0.0,0.0,97,0.01,,,0.01,VWS V14.01,2013-05-09 05:28:00,
2013-05-09 01:33:00,58.5,57.7,29.91,NW,317,0.0,0.0,97,0.01,,,0.01,VWS V14.01,2013-05-09 05:33:00,
2013-05-09 01:38:00,58.4,57.6,29.91,NW,317,0.0,0.0,97,0.01,,,0.01,VWS V14.01,2013-05-09 05:38:00,
2013-05-09 01:43:00,58.3,57.5,29.91,NW,317,0.0,0.0,97,0.01,,,0.01,VWS V14.01,2013-05-09 05:43:00,
2013-05-09 01:48:00,58.3,57.5,29.90,NW,317,0.0,0.0,97,0.01,,,0.01,VWS V14.01,2013-05-09 05:48:00,
2013-05-09 01:53:00,58.2,57.4,29.90,NW,317,0.0,0.0,97,0.01,,,0.01,VWS V14.01,2013-05-09 05:53:00,
2013-05-09 01:58:00,58.2,57.4,29.90,NW,317,0.0,0.0,97,0.01,,,0.01,VWS V14.01,2013-05-09 05:58:00,
2013-05-09 02:03:00,58.3,57.5,29.90,NW,317,0.0,0.0,97,0.00,,,0.01,VWS V14.01,2013-05-09 06:03:00,
2013-05-09 02:08:00,58.3,57.5,29.90,NW,317,0.0,0.0,97,0.00,,,0.01,VWS V14.01,2013-05-09 06:08:00,
2013-05-09 02:13:00,58.2,57.4,29.90,NW,317,0.0,0.0,97,0.00,,,0.01,VWS V14.01,2013-05-09 06:13:00,
2013-05-09 02:18:00,58.2,57.4,29.90,NW,317,0.0,0.0,97,0.00,,,0.01,VWS V14.01,2013-05-09 06:18:00,
2013-05-09 02:23:00,58.1,57.3,29.90,NW,317,0.0,0.0,97,0.01,,,0.02,VWS V14.01,2013-05-09 06:23:00,
2013-05-09 02:28:00,58.1,57.3,29.90,NW,317,0.0,0.0,97,0.01,,,0.02,VWS V14.01,2013-05-09 06:28:00,
2013-05-09 02:33:00,58.0,57.2,29.90,NW,317,0.0,0.0,97,0.01,,,0.02,VWS V14.01,2013-05-09 06:33:00,
2013-05-09 02:38:00,57.9,57.1,29.90,NW,317,0.0,0.0,97,0.01,,,0.02,VWS V14.01,2013-05-09 06:38:00,
2013-05-09 02:43:00,57.7,56.9,29.90,NW,317,0.0,0.0,97,0.01,,,0.02,VWS V14.01,2013-05-09 06:43:00,
2013-05-09 02:48:00,57.6,56.8,29.90,WNW,290,1.0,2.0,97,0.01,,,0.02,VWS V14.01,2013-05-09 06:48:00,
2013-05-09 02:53:00,57.6,57.0,29.90,West,271,1.0,2.0,98,0.01,,,0.02,VWS V14.01,2013-05-09 06:53:00,
2013-05-09 02:58:00,57.6,56.8,29.90,West,276,0.0,1.0,97,0.01,,,0.02,VWS V14.01,2013-05-09 06:58:00,
2013-05-09 03:03:00,57.4,56.6,29.90,West,261,0.0,4.0,97,0.01,,,0.02,VWS V14.01,2013-05-09 07:03:00,
2013-05-09 03:08:00,57.3,56.5,29.90,WNW,289,0.0,4.0,97,0.01,,,0.02,VWS V14.01,2013-05-09 07:08:00,
2013-05-09 03:13:00,57.2,56.4,29.90,West,269,0.0,3.0,97,0.01,,,0.02,VWS V14.01,2013-05-09 07:13:00,
2013-05-09 03:18:00,57.1,56.3,29.90,West,270,0.0,0.0,97,0.01,,,0.02,VWS V14.01,2013-05-09 07:18:00,
2013-05-09 03:23:00,56.9,56.1,29.90,West,274,0.0,0.0,97,0.01,,,0.02,VWS V14.01,2013-05-09 07:23:00,
2013-05-09 03:28:00,56.9,56.1,29.90,WNW,287,2.0,2.0,97,0.01,,,0.02,VWS V14.01,2013-05-09 07:28:00,
2013-05-09 03:33:00,56.8,56.0,29.90,West,268,0.0,1.0,97,0.00,,,0.02,VWS V14.01,2013-05-09 07:33:00,
2013-05-09 03:38:00,56.8,56.0,29.90,West,279,1.0,3.0,97,0.00,,,0.02,VWS V14.01,2013-05-09 07:38:00,
2013-05-09 03:43:00,56.8,56.0,29.90,WNW,288,0.0,4.0,97,0.00,,,0.02,VWS V14.01,2013-05-09 07:43:00,
2013-05-09 03:48:00,56.7,55.9,29.90,West,269,0.0,0.0,97,0.00,,,0.02,VWS V14.01,2013-05-09 07:48:00,
2013-05-09 03:53:00,56.8,56.2,29.90,WNW,303,0.0,1.0,98,0.00,,,0.02,VWS V14.01,2013-05-09 07:53:00,
2013-05-09 03:58:00,56.9,56.3,29.90,NW,307,1.0,4.0,98,0.00,,,0.02,VWS V14.01,2013-05-09 07:58:00,
2013-05-09 04:03:00,57.0,56.2,29.89,NW,325,4.0,4.0,97,0.00,,,0.02,VWS V14.01,2013-05-09 08:03:00,
2013-05-09 04:08:00,57.1,56.3,29.89,NNW,335,4.0,4.0,97,0.00,,,0.02,VWS V14.01,2013-05-09 08:08:00,
2013-05-09 04:13:00,57.0,56.2,29.89,NW,317,0.0,0.0,97,0.00,,,0.02,VWS V14.01,2013-05-09 08:13:00,
2013-05-09 04:18:00,56.9,56.1,29.89,NW,317,0.0,0.0,97,0.00,,,0.02,VWS V14.01,2013-05-09 08:18:00,
2013-05-09 04:23:00,56.8,56.0,29.89,NW,317,0.0,0.0,97,0.00,,,0.02,VWS V14.01,2013-05-09 08:23:00,
2013-05-09 04:28:00,56.6,55.8,29.89,NW,317,0.0,0.0,97,0.00,,,0.02,VWS V14.01,2013-05-09 08:28:00,
2013-05-09 04:33:00,56.5,55.7,29.89,NW,317,0.0,0.0,97,0.00,,,0.02,VWS V14.01,2013-05-09 08:33:00,
2013-05-09 04:38:00,56.4,55.6,29.89,NW,317,0.0,0.0,97,0.00,,,0.02,VWS V14.01,2013-05-09 08:38:00,
2013-05-09 04:43:00,56.3,55.5,29.89,NW,317,0.0,0.0,97,0.00,,,0.02,VWS V14.01,2013-05-09 08:43:00,
2013-05-09 04:48:00,56.3,55.5,29.89,NW,317,0.0,0.0,97,0.00,,,0.02,VWS V14.01,2013-05-09 08:48:00,
2013-05-09 04:53:00,56.2,55.4,29.89,NW,317,0.0,0.0,97,0.00,,,0.02,VWS V14.01,2013-05-09 08:53:00,
2013-05-09 04:58:00,56.2,55.4,29.89,NW,317,0.0,0.0,97,0.00,,,0.02,VWS V14.01,2013-05-09 08:58:00,
2013-05-09 05:04:00,56.2,55.4,29.89,NW,317,0.0,0.0,97,0.00,,,0.02,VWS V14.01,2013-05-09 09:04:00,
2013-05-09 05:09:00,56.2,55.4,29.89,NW,317,0.0,0.0,97,0.00,,,0.02,VWS V14.01,2013-05-09 09:09:00,
2013-05-09 05:13:00,56.2,55.4,29.89,NW,317,0.0,0.0,97,0.00,,,0.02,VWS V14.01,2013-05-09 09:13:00,
2013-05-09 05:18:00,56.2,55.7,29.89,West,279,0.0,0.0,98,0.00,,,0.02,VWS V14.01,2013-05-09 09:18:00,
2013-05-09 05:23:00,56.3,55.8,29.89,West,273,1.0,4.0,98,0.00,,,0.02,VWS V14.01,2013-05-09 09:23:00,
2013-05-09 05:28:00,56.3,55.8,29.89,West,273,0.0,0.0,98,0.00,,,0.02,VWS V14.01,2013-05-09 09:28:00,
2013-05-09 05:33:00,56.2,55.4,29.90,West,273,0.0,0.0,97,0.00,,,0.02,VWS V14.01,2013-05-09 09:33:00,
2013-05-09 05:38:00,56.3,55.8,29.89,West,273,0.0,0.0,98,0.00,,,0.02,VWS V14.01,2013-05-09 09:38:00,
2013-05-09 05:43:00,56.3,55.8,29.89,West,273,0.0,0.0,98,0.00,,,0.02,VWS V14.01,2013-05-09 09:43:00,
2013-05-09 05:48:00,56.4,55.8,29.90,West,273,0.0,0.0,98,0.00,,,0.02,VWS V14.01,2013-05-09 09:48:00,
2013-05-09 05:53:00,56.3,55.8,29.90,West,273,0.0,0.0,98,0.00,,,0.02,VWS V14.01,2013-05-09 09:53:00,
2013-05-09 05:58:00,56.4,55.8,29.90,West,273,0.0,3.0,98,0.00,,,0.02,VWS V14.01,2013-05-09 09:58:00,
2013-05-09 06:04:00,56.4,55.8,29.90,West,265,0.0,0.0,98,0.00,,,0.02,VWS V14.01,2013-05-09 10:04:00,
2013-05-09 06:09:00,56.4,55.8,29.91,West,265,0.0,0.0,98,0.00,,,0.02,VWS V14.01,2013-05-09 10:09:00,
2013-05-09 06:13:00,56.5,55.9,29.91,West,265,0.0,0.0,98,0.00,,,0.02,VWS V14.01,2013-05-09 10:13:00,
2013-05-09 06:18:00,56.6,56.0,29.91,West,265,0.0,0.0,98,0.00,,,0.02,VWS V14.01,2013-05-09 10:18:00,
2013-05-09 06:23:00,56.6,56.0,29.91,West,263,0.0,0.0,98,0.00,,,0.02,VWS V14.01,2013-05-09 10:23:00,
2013-05-09 06:28:00,56.7,56.1,29.91,WSW,250,0.0,4.0,98,0.00,,,0.02,VWS V14.01,2013-05-09 10:28:00,
2013-05-09 06:34:00,56.8,56.2,29.91,SW,225,4.0,6.0,98,0.00,,,0.02,VWS V14.01,2013-05-09 10:34:00,
2013-05-09 06:39:00,56.8,56.2,29.92,WSW,240,4.0,6.0,98,0.00,,,0.02,VWS V14.01,2013-05-09 10:39:00,
2013-05-09 06:44:00,56.7,56.1,29.92,WSW,240,0.0,3.0,98,0.00,,,0.02,VWS V14.01,2013-05-09 10:44:00,
2013-05-09 06:49:00,56.6,56.0,29.92,WSW,247,4.0,7.0,98,0.00,,,0.02,VWS V14.01,2013-05-09 10:49:00,
2013-05-09 06:54:00,56.5,55.9,29.93,West,264,1.0,7.0,98,0.01,,,0.03,VWS V14.01,2013-05-09 10:54:00,
2013-05-09 06:59:00,56.4,55.8,29.93,West,270,4.0,7.0,98,0.01,,,0.03,VWS V14.01,2013-05-09 10:59:00,
2013-05-09 07:04:00,56.2,55.7,29.93,West,273,5.0,9.0,98,0.01,,,0.03,VWS V14.01,2013-05-09 11:04:00,
2013-05-09 07:09:00,55.8,55.2,29.93,West,273,4.0,6.0,98,0.01,,,0.03,VWS V14.01,2013-05-09 11:09:00,
2013-05-09 07:14:00,55.7,55.2,29.93,West,266,3.0,4.0,98,0.01,,,0.03,VWS V14.01,2013-05-09 11:14:00,
2013-05-09 07:19:00,55.7,55.2,29.93,WNW,292,3.0,4.0,98,0.01,,,0.03,VWS V14.01,2013-05-09 11:19:00,
2013-05-09 07:24:00,55.6,55.0,29.93,WNW,288,1.0,3.0,98,0.01,,,0.03,VWS V14.01,2013-05-09 11:24:00,
2013-05-09 07:29:00,55.4,54.8,29.93,NW,307,1.0,3.0,98,0.01,,,0.03,VWS V14.01,2013-05-09 11:29:00,
2013-05-09 07:34:00,55.4,54.8,29.93,West,265,0.0,0.0,98,0.01,,,0.03,VWS V14.01,2013-05-09 11:34:00,
2013-05-09 07:39:00,55.5,55.0,29.94,West,269,2.0,6.0,98,0.01,,,0.03,VWS V14.01,2013-05-09 11:39:00,
2013-05-09 07:44:00,55.5,55.0,29.94,West,267,2.0,4.0,98,0.01,,,0.03,VWS V14.01,2013-05-09 11:44:00,
2013-05-09 07:48:00,55.5,55.0,29.94,West,265,0.0,3.0,98,0.01,,,0.03,VWS V14.01,2013-05-09 11:48:00,
2013-05-09 07:53:00,55.5,55.0,29.94,WSW,256,0.0,0.0,98,0.01,,,0.03,VWS V14.01,2013-05-09 11:53:00,
2013-05-09 07:58:00,55.6,55.0,29.94,WSW,254,0.0,0.0,98,0.01,,,0.03,VWS V14.01,2013-05-09 11:58:00,
2013-05-09 08:03:00,55.7,55.2,29.94,WSW,245,4.0,4.0,98,0.00,,,0.03,VWS V14.01,2013-05-09 12:03:00,
2013-05-09 08:08:00,55.7,55.2,29.95,WSW,255,4.0,5.0,98,0.00,,,0.03,VWS V14.01,2013-05-09 12:08:00,
2013-05-09 08:13:00,55.7,55.2,29.95,West,270,3.0,7.0,98,0.00,,,0.03,VWS V14.01,2013-05-09 12:13:00,
2013-05-09 08:19:00,55.5,55.0,29.95,WSW,250,9.0,9.0,98,0.00,,,0.03,VWS V14.01,2013-05-09 12:19:00,
2013-05-09 08:23:00,55.3,54.8,29.95,WSW,237,5.0,7.0,98,0.00,,,0.03,VWS V14.01,2013-05-09 12:23:00,
2013-05-09 08:28:00,55.3,54.8,29.95,WSW,241,0.0,4.0,98,0.00,,,0.03,VWS V14.01,2013-05-09 12:28:00,
2013-05-09 08:33:00,55.4,54.8,29.95,WSW,244,4.0,7.0,98,0.00,,,0.03,VWS V14.01,2013-05-09 12:33:00,
2013-05-09 08:38:00,55.3,54.8,29.95,WSW,245,4.0,5.0,98,0.00,,,0.03,VWS V14.01,2013-05-09 12:38:00,
2013-05-09 08:43:00,55.3,54.8,29.95,WSW,244,0.0,1.0,98,0.00,,,0.03,VWS V14.01,2013-05-09 12:43:00,
2013-05-09 08:48:00,55.5,55.0,29.95,WSW,244,3.0,6.0,98,0.00,,,0.03,VWS V14.01,2013-05-09 12:48:00,
2013-05-09 08:53:00,55.7,55.4,29.95,WSW,244,3.0,5.0,99,0.00,,,0.03,VWS V14.01,2013-05-09 12:53:00,
2013-05-09 08:58:00,56.0,55.7,29.95,SW,220,5.0,5.0,99,0.00,,,0.03,VWS V14.01,2013-05-09 12:58:00,
2013-05-09 09:03:00,55.9,55.6,29.95,SW,221,4.0,7.0,99,0.00,,,0.03,VWS V14.01,2013-05-09 13:03:00,
2013-05-09 09:08:00,56.0,55.7,29.96,SW,225,1.0,5.0,99,0.00,,,0.03,VWS V14.01,2013-05-09 13:08:00,
2013-05-09 09:13:00,56.1,55.8,29.96,SW,227,3.0,7.0,99,0.00,,,0.03,VWS V14.01,2013-05-09 13:13:00,
2013-05-09 09:18:00,56.0,55.7,29.96,WSW,255,6.0,6.0,99,0.00,,,0.03,VWS V14.01,2013-05-09 13:18:00,
2013-05-09 09:23:00,56.4,56.1,29.96,SW,229,4.0,10.0,99,0.00,,,0.03,VWS V14.01,2013-05-09 13:23:00,
2013-05-09 09:28:00,56.6,56.3,29.96,SW,216,5.0,7.0,99,0.00,,,0.03,VWS V14.01,2013-05-09 13:28:00,
2013-05-09 09:33:00,56.9,56.6,29.96,SW,230,6.0,8.0,99,0.00,,,0.03,VWS V14.01,2013-05-09 13:33:00,
2013-05-09 09:38:00,57.1,56.8,29.96,WSW,244,4.0,6.0,99,0.00,,,0.03,VWS V14.01,2013-05-09 13:38:00,
2013-05-09 09:43:00,57.2,56.6,29.96,WSW,250,4.0,4.0,98,0.00,,,0.03,VWS V14.01,2013-05-09 13:43:00,
2013-05-09 09:48:00,57.3,56.7,29.96,West,279,0.0,5.0,98,0.00,,,0.03,VWS V14.01,2013-05-09 13:48:00,
2013-05-09 09:53:00,57.6,57.0,29.97,West,270,3.0,6.0,98,0.00,,,0.03,VWS V14.01,2013-05-09 13:53:00,
2013-05-09 09:58:00,57.7,57.1,29.97,SW,236,2.0,7.0,98,0.00,,,0.03,VWS V14.01,2013-05-09 13:58:00,
2013-05-09 10:03:00,58.1,57.5,29.97,West,275,4.0,4.0,98,0.00,,,0.03,VWS V14.01,2013-05-09 14:03:00,
2013-05-09 10:08:00,58.0,57.2,29.97,West,269,2.0,7.0,97,0.00,,,0.03,VWS V14.01,2013-05-09 14:08:00,
2013-05-09 10:13:00,58.0,57.2,29.97,West,264,5.0,5.0,97,0.00,,,0.03,VWS V14.01,2013-05-09 14:13:00,
2013-05-09 10:18:00,58.1,57.0,29.97,WNW,289,6.0,10.0,96,0.00,,,0.03,VWS V14.01,2013-05-09 14:18:00,
2013-05-09 10:23:00,58.3,57.2,29.96,WSW,245,3.0,6.0,96,0.00,,,0.03,VWS V14.01,2013-05-09 14:23:00,
2013-05-09 10:28:00,58.4,57.0,29.96,WSW,239,2.0,5.0,95,0.00,,,0.03,VWS V14.01,2013-05-09 14:28:00,
2013-05-09 10:33:00,58.7,57.6,29.96,WNW,288,0.0,3.0,96,0.00,,,0.03,VWS V14.01,2013-05-09 14:33:00,
2013-05-09 10:38:00,58.9,57.2,29.97,NW,307,5.0,6.0,94,0.00,,,0.03,VWS V14.01,2013-05-09 14:38:00,
2013-05-09 10:43:00,59.1,57.4,29.97,NNW,327,4.0,4.0,94,0.00,,,0.03,VWS V14.01,2013-05-09 14:43:00,
2013-05-09 10:48:00,59.5,57.8,29.97,WNW,282,3.0,5.0,94,0.00,,,0.03,VWS V14.01,2013-05-09 14:48:00,
2013-05-09 11:07:00,60.5,58.2,29.97,West,278,4.0,4.0,92,0.10,,,0.03,VWS V14.01,2013-05-09 15:07:00,
2013-05-09 11:12:00,60.4,57.5,29.97,SW,236,1.0,6.0,90,0.10,,,0.03,VWS V14.01,2013-05-09 15:12:00,
2013-05-09 11:17:00,60.4,57.8,29.97,WSW,244,2.0,6.0,91,0.10,,,0.03,VWS V14.01,2013-05-09 15:17:00,
2013-05-09 11:22:00,60.4,57.5,29.96,SW,229,5.0,5.0,90,0.10,,,0.03,VWS V14.01,2013-05-09 15:22:00,
2013-05-09 11:27:00,60.5,57.9,29.96,SW,221,0.0,1.0,91,0.10,,,0.03,VWS V14.01,2013-05-09 15:27:00,
2013-05-09 11:32:00,60.7,57.4,29.97,WSW,238,0.0,3.0,89,0.00,,,0.03,VWS V14.01,2013-05-09 15:32:00,
2013-05-09 11:37:00,60.8,57.5,29.96,WSW,239,0.0,0.0,89,0.00,,,0.03,VWS V14.01,2013-05-09 15:37:00,
2013-05-09 11:42:00,61.0,57.4,29.96,South,181,0.0,3.0,88,0.00,,OVC010,0.03,VWS V14.01,2013-05-09 15:42:00,
2013-05-09 11:47:00,61.2,57.9,29.96,SSE,154,4.0,6.0,89,0.00,,OVC010,0.03,VWS V14.01,2013-05-09 15:47:00,
2013-05-09 11:52:00,61.3,58.3,29.96,SSE,154,0.0,4.0,90,0.00,,BKN070,0.03,VWS V14.01,2013-05-09 15:52:00,
2013-05-09 11:57:00,61.4,58.1,29.96,SSE,150,7.0,7.0,89,0.00,,BKN070,0.03,VWS V14.01,2013-05-09 15:57:00,
2013-05-09 12:02:00,61.6,58.6,29.96,WSW,242,3.0,5.0,90,0.00,,BKN070,0.03,VWS V14.01,2013-05-09 16:02:00,
2013-05-09 12:07:00,61.8,58.8,29.95,SSE,162,7.0,7.0,90,0.00,,BKN070,0.03,VWS V14.01,2013-05-09 16:07:00,
2013-05-09 12:12:00,61.8,58.8,29.95,SSE,160,7.0,7.0,90,0.00,,BKN070,0.03,VWS V14.01,2013-05-09 16:12:00,
2013-05-09 12:17:00,61.8,58.5,29.95,SSE,167,6.0,10.0,89,0.00,,BKN070,0.03,VWS V14.01,2013-05-09 16:17:00,
2013-05-09 12:22:00,61.7,58.7,29.95,SSE,160,6.0,7.0,90,0.00,,BKN070,0.03,VWS V14.01,2013-05-09 16:22:00,
2013-05-09 12:27:00,61.7,58.4,29.95,SSE,155,6.0,6.0,89,0.00,,BKN070,0.03,VWS V14.01,2013-05-09 16:27:00,
2013-05-09 12:32:00,61.7,58.7,29.95,SE,129,4.0,5.0,90,0.00,,BKN070,0.03,VWS V14.01,2013-05-09 16:32:00,
2013-05-09 12:37:00,61.9,58.9,29.95,ESE,123,5.0,6.0,90,0.00,,BKN070,0.03,VWS V14.01,2013-05-09 16:37:00,
2013-05-09 12:42:00,62.1,59.1,29.95,SE,129,3.0,6.0,90,0.00,,BKN100,0.03,VWS V14.01,2013-05-09 16:42:00,
2013-05-09 12:47:00,62.0,59.3,29.95,ESE,121,5.0,5.0,91,0.00,,BKN100,0.03,VWS V14.01,2013-05-09 16:47:00,
2013-05-09 12:52:00,61.7,58.7,29.95,ESE,121,3.0,3.0,90,0.01,,BKN100,0.04,VWS V14.01,2013-05-09 16:52:00,
2013-05-09 12:57:00,61.9,59.5,29.95,SE,140,2.0,5.0,92,0.01,,BKN100,0.04,VWS V14.01,2013-05-09 16:57:00,
2013-05-09 13:02:00,61.9,58.9,29.95,SE,133,5.0,6.0,90,0.01,,BKN100,0.04,VWS V14.01,2013-05-09 17:02:00,
2013-05-09 13:07:00,62.0,59.3,29.94,SE,136,4.0,5.0,91,0.01,,BKN100,0.04,VWS V14.01,2013-05-09 17:07:00,
2013-05-09 13:12:00,62.2,59.2,29.94,SE,134,7.0,7.0,90,0.01,,BKN100,0.04,VWS V14.01,2013-05-09 17:12:00,
2013-05-09 13:17:00,62.3,60.0,29.94,SSE,156,6.0,9.0,92,0.01,,BKN100,0.04,VWS V14.01,2013-05-09 17:17:00,
2013-05-09 13:22:00,62.4,59.4,29.94,SE,144,4.0,7.0,90,0.01,,BKN100,0.04,VWS V14.01,2013-05-09 17:22:00,
2013-05-09 13:27:00,62.4,59.7,29.94,SSE,150,6.0,8.0,91,0.01,,BKN100,0.04,VWS V14.01,2013-05-09 17:27:00,
2013-05-09 13:32:00,63.0,60.6,29.94,SSE,148,5.0,6.0,92,0.01,,BKN100,0.04,VWS V14.01,2013-05-09 17:32:00,
2013-05-09 13:37:00,63.3,60.6,29.94,SSE,159,9.0,9.0,91,0.01,,BKN100,0.04,VWS V14.01,2013-05-09 17:37:00,
2013-05-09 13:42:00,63.1,60.4,29.93,SSE,159,9.0,9.0,91,0.01,,BKN100,0.04,VWS V14.01,2013-05-09 17:42:00,
2013-05-09 13:47:00,63.3,60.6,29.93,SSE,153,6.0,8.0,91,0.01,,BKN100,0.04,VWS V14.01,2013-05-09 17:47:00,
2013-05-09 13:52:00,63.7,61.0,29.93,SE,138,5.0,8.0,91,0.01,,BKN100,0.04,VWS V14.01,2013-05-09 17:52:00,
2013-05-09 13:57:00,64.1,61.4,29.93,SSE,154,6.0,9.0,91,0.01,,BKN100,0.04,VWS V14.01,2013-05-09 17:57:00,
2013-05-09 14:02:00,64.4,61.4,29.93,SE,146,6.0,10.0,90,0.00,,BKN100,0.04,VWS V14.01,2013-05-09 18:02:00,
2013-05-09 14:07:00,64.6,61.3,29.93,SSE,150,6.0,10.0,89,0.00,,BKN100,0.04,VWS V14.01,2013-05-09 18:07:00,
2013-05-09 14:12:00,64.9,61.9,29.93,SSE,167,9.0,9.0,90,0.00,,BKN100,0.04,VWS V14.01,2013-05-09 18:12:00,
2013-05-09 14:17:00,65.3,62.3,29.93,SE,137,7.0,10.0,90,0.00,,BKN100,0.04,VWS V14.01,2013-05-09 18:17:00,
2013-05-09 14:22:00,65.6,62.6,29.93,SSE,157,6.0,7.0,90,0.00,,BKN100,0.04,VWS V14.01,2013-05-09 18:22:00,
2013-05-09 14:27:00,65.6,62.0,29.93,SSE,154,9.0,9.0,88,0.00,,BKN100,0.04,VWS V14.01,2013-05-09 18:27:00,
2013-05-09 14:32:00,65.7,62.0,29.93,SSE,157,6.0,8.0,88,0.00,,BKN100,0.04,VWS V14.01,2013-05-09 18:32:00,
2013-05-09 14:37:00,65.7,62.0,29.93,SSE,164,6.0,9.0,88,0.00,,BKN100,0.04,VWS V14.01,2013-05-09 18:37:00,
2013-05-09 14:42:00,65.8,61.8,29.93,SSE,152,7.0,10.0,87,0.00,,SCT100,0.04,VWS V14.01,2013-05-09 18:42:00,
2013-05-09 14:47:00,65.7,61.7,29.93,South,178,5.0,9.0,87,0.00,,SCT100,0.04,VWS V14.01,2013-05-09 18:47:00,
2013-05-09 14:52:00,65.9,62.6,29.92,SSE,152,9.0,10.0,89,0.00,,SCT100,0.04,VWS V14.01,2013-05-09 18:52:00,
2013-05-09 14:57:00,66.0,62.7,29.93,SSE,159,7.0,10.0,89,0.00,,SCT100,0.04,VWS V14.01,2013-05-09 18:57:00,
2013-05-09 15:02:00,65.8,62.2,29.92,SSE,157,7.0,9.0,88,0.00,,SCT100,0.04,VWS V14.01,2013-05-09 19:02:00,
2013-05-09 15:07:00,65.9,62.6,29.92,SSE,163,7.0,8.0,89,0.00,,SCT100,0.04,VWS V14.01,2013-05-09 19:07:00,
2013-05-09 15:12:00,65.9,62.6,29.92,South,169,7.0,9.0,89,0.00,,SCT100,0.04,VWS V14.01,2013-05-09 19:12:00,
2013-05-09 15:17:00,65.8,62.5,29.92,SSE,156,7.0,8.0,89,0.00,,SCT100,0.04,VWS V14.01,2013-05-09 19:17:00,
2013-05-09 15:22:00,65.9,62.6,29.92,South,171,6.0,9.0,89,0.00,,SCT100,0.04,VWS V14.01,2013-05-09 19:22:00,
2013-05-09 15:27:00,65.9,62.6,29.92,SSE,165,7.0,7.0,89,0.00,,SCT100,0.04,VWS V14.01,2013-05-09 19:27:00,
2013-05-09 15:32:00,66.1,63.1,29.92,SSE,155,5.0,7.0,90,0.00,,SCT100,0.04,VWS V14.01,2013-05-09 19:32:00,
2013-05-09 15:37:00,66.6,63.9,29.92,SSE,153,5.0,6.0,91,0.00,,SCT100,0.04,VWS V14.01,2013-05-09 19:37:00,
2013-05-09 15:42:00,66.5,62.8,29.92,SE,144,4.0,5.0,88,0.00,,SCT030,0.04,VWS V14.01,2013-05-09 19:42:00,
2013-05-09 15:47:00,66.6,62.9,29.92,SE,138,4.0,5.0,88,0.00,,SCT030,0.04,VWS V14.01,2013-05-09 19:47:00,
2013-05-09 15:52:00,66.9,63.2,29.92,SSE,154,6.0,7.0,88,0.00,,SCT030,0.04,VWS V14.01,2013-05-09 19:52:00,
2013-05-09 15:57:00,66.5,62.5,29.92,SE,140,4.0,5.0,87,0.00,,SCT030,0.04,VWS V14.01,2013-05-09 19:57:00,
2013-05-09 16:02:00,66.6,63.6,29.92,SSE,165,6.0,8.0,90,0.00,,SCT030,0.04,VWS V14.01,2013-05-09 20:02:00,
2013-05-09 16:08:00,66.8,63.1,29.91,SSE,163,5.0,7.0,88,0.00,,SCT030,0.04,VWS V14.01,2013-05-09 20:08:00,
2013-05-09 16:13:00,67.1,63.8,29.91,SE,144,5.0,6.0,89,0.00,,SCT030,0.04,VWS V14.01,2013-05-09 20:13:00,
2013-05-09 16:18:00,67.5,63.8,29.92,SSE,158,5.0,6.0,88,0.00,,SCT030,0.04,VWS V14.01,2013-05-09 20:18:00,
2013-05-09 16:23:00,67.6,63.6,29.92,South,171,5.0,7.0,87,0.00,,SCT030,0.04,VWS V14.01,2013-05-09 20:23:00,
2013-05-09 16:28:00,67.3,63.0,29.92,South,170,7.0,7.0,86,0.00,,SCT030,0.04,VWS V14.01,2013-05-09 20:28:00,
2013-05-09 16:33:00,66.7,62.0,29.92,SSE,159,6.0,7.0,85,0.00,,SCT030,0.04,VWS V14.01,2013-05-09 20:33:00,
2013-05-09 16:38:00,66.5,61.9,29.92,South,175,2.0,6.0,85,0.00,,SCT030,0.04,VWS V14.01,2013-05-09 20:38:00,
2013-05-09 16:43:00,66.8,62.5,29.92,SSE,163,8.0,8.0,86,0.00,,BKN080,0.04,VWS V14.01,2013-05-09 20:43:00,
2013-05-09 16:48:00,67.3,62.6,29.91,SSE,163,5.0,9.0,85,0.00,,BKN080,0.04,VWS V14.01,2013-05-09 20:48:00,
2013-05-09 16:53:00,67.7,62.4,29.91,SSE,163,7.0,9.0,83,0.00,,BKN080,0.04,VWS V14.01,2013-05-09 20:53:00,
2013-05-09 16:58:00,67.9,62.5,29.91,South,173,1.0,10.0,83,0.00,,BKN080,0.04,VWS V14.01,2013-05-09 20:58:00,
2013-05-09 17:03:00,68.0,63.0,29.91,SSE,165,5.0,9.0,84,0.00,,BKN080,0.04,VWS V14.01,2013-05-09 21:03:00,
2013-05-09 17:08:00,68.2,63.2,29.91,South,171,1.0,8.0,84,0.00,,BKN080,0.04,VWS V14.01,2013-05-09 21:08:00,
2013-05-09 17:13:00,68.5,62.8,29.91,South,175,3.0,5.0,82,0.00,,BKN080,0.04,VWS V14.01,2013-05-09 21:13:00,
2013-05-09 17:18:00,68.3,62.6,29.91,South,172,2.0,6.0,82,0.00,,BKN080,0.04,VWS V14.01,2013-05-09 21:18:00,
2013-05-09 17:23:00,67.9,62.5,29.92,South,173,4.0,4.0,83,0.00,,BKN080,0.04,VWS V14.01,2013-05-09 21:23:00,
2013-05-09 17:28:00,67.7,63.0,29.92,SSE,153,2.0,5.0,85,0.00,,BKN080,0.04,VWS V14.01,2013-05-09 21:28:00,
2013-05-09 17:33:00,67.4,62.7,29.92,South,183,0.0,4.0,85,0.00,,BKN080,0.04,VWS V14.01,2013-05-09 21:33:00,
2013-05-09 17:38:00,67.3,62.6,29.92,South,173,1.0,4.0,85,0.00,,BKN080,0.04,VWS V14.01,2013-05-09 21:38:00,
2013-05-09 17:43:00,67.4,62.4,29.92,South,179,2.0,5.0,84,0.00,,BKN060,0.04,VWS V14.01,2013-05-09 21:43:00,
2013-05-09 17:48:00,67.4,62.7,29.92,SSE,160,3.0,6.0,85,0.00,,BKN060,0.04,VWS V14.01,2013-05-09 21:48:00,
2013-05-09 17:53:00,67.7,63.4,29.92,SW,221,4.0,4.0,86,0.00,,BKN060,0.04,VWS V14.01,2013-05-09 21:53:00,
2013-05-09 17:58:00,68.3,63.6,29.91,SSE,152,7.0,7.0,85,0.00,,BKN060,0.04,VWS V14.01,2013-05-09 21:58:00,
2013-05-09 18:03:00,68.9,62.8,29.92,WSW,242,0.0,5.0,81,0.00,,BKN060,0.04,VWS V14.01,2013-05-09 22:03:00,
2013-05-09 18:08:00,69.6,63.9,29.92,SSW,207,2.0,3.0,82,0.00,,BKN060,0.04,VWS V14.01,2013-05-09 22:08:00,
2013-05-09 18:13:00,70.2,63.4,29.92,SSW,204,3.0,4.0,79,0.00,,BKN060,0.04,VWS V14.01,2013-05-09 22:13:00,
2013-05-09 18:18:00,70.5,63.7,29.92,South,181,1.0,7.0,79,0.00,,BKN060,0.04,VWS V14.01,2013-05-09 22:18:00,
2013-05-09 18:23:00,70.1,62.9,29.92,South,169,0.0,6.0,78,0.00,,BKN060,0.04,VWS V14.01,2013-05-09 22:23:00,
2013-05-09 18:28:00,69.6,62.8,29.92,South,184,0.0,6.0,79,0.00,,BKN060,0.04,VWS V14.01,2013-05-09 22:28:00,
2013-05-09 18:33:00,69.2,62.4,29.92,SSW,203,0.0,3.0,79,0.00,,BKN060,0.04,VWS V14.01,2013-05-09 22:33:00,
2013-05-09 18:38:00,69.2,62.4,29.92,SSW,195,0.0,2.0,79,0.00,,BKN060,0.04,VWS V14.01,2013-05-09 22:38:00,
2013-05-09 18:43:00,69.2,62.1,29.92,SSW,201,0.0,5.0,78,0.00,,BKN060,0.04,VWS V14.01,2013-05-09 22:43:00,
2013-05-09 18:48:00,69.2,62.1,29.92,SSW,196,1.0,2.0,78,0.00,,BKN060,0.04,VWS V14.01,2013-05-09 22:48:00,
2013-05-09 18:53:00,68.9,61.4,29.92,SSE,163,0.0,6.0,77,0.00,,BKN060,0.04,VWS V14.01,2013-05-09 22:53:00,
2013-05-09 18:58:00,68.3,61.5,29.92,SSE,162,0.0,5.0,79,0.00,,BKN060,0.04,VWS V14.01,2013-05-09 22:58:00,
2013-05-09 19:03:00,67.8,61.8,29.92,South,177,1.0,2.0,81,0.00,,BKN060,0.04,VWS V14.01,2013-05-09 23:03:00,
2013-05-09 19:08:00,67.6,61.6,29.92,South,179,0.0,0.0,81,0.00,,BKN060,0.04,VWS V14.01,2013-05-09 23:08:00,
2013-05-09 19:13:00,67.5,61.5,29.92,South,181,0.0,2.0,81,0.00,,BKN060,0.04,VWS V14.01,2013-05-09 23:13:00,
2013-05-09 19:18:00,67.6,61.6,29.92,South,186,0.0,0.0,81,0.00,,BKN060,0.04,VWS V14.01,2013-05-09 23:18:00,
2013-05-09 19:23:00,67.6,61.6,29.92,South,186,0.0,0.0,81,0.00,,BKN060,0.04,VWS V14.01,2013-05-09 23:23:00,
2013-05-09 19:28:00,67.6,61.6,29.92,South,186,0.0,0.0,81,0.00,,BKN060,0.04,VWS V14.01,2013-05-09 23:28:00,
2013-05-09 19:33:00,67.3,61.3,29.93,South,186,0.0,0.0,81,0.00,,BKN060,0.04,VWS V14.01,2013-05-09 23:33:00,
2013-05-09 19:38:00,66.9,61.2,29.93,South,186,0.0,0.0,82,0.00,,BKN060,0.04,VWS V14.01,2013-05-09 23:38:00,
2013-05-09 19:43:00,66.6,60.9,29.93,South,186,0.0,0.0,82,0.00,,SCT080,0.04,VWS V14.01,2013-05-09 23:43:00,
2013-05-09 19:48:00,66.2,60.9,29.93,South,186,0.0,0.0,83,0.00,,SCT080,0.04,VWS V14.01,2013-05-09 23:48:00,
2013-05-09 19:53:00,65.9,60.9,29.93,South,186,2.0,3.0,84,0.00,,SCT080,0.04,VWS V14.01,2013-05-09 23:53:00,
2013-05-09 19:58:00,65.8,60.8,29.93,South,186,0.0,1.0,84,0.00,,SCT080,0.04,VWS V14.01,2013-05-09 23:58:00,
2013-05-09 20:03:00,65.6,60.6,29.94,South,187,0.0,0.0,84,0.00,,SCT080,0.04,VWS V14.01,2013-05-10 00:03:00,
2013-05-09 20:08:00,65.5,60.9,29.94,South,187,0.0,0.0,85,0.00,,SCT080,0.04,VWS V14.01,2013-05-10 00:08:00,
2013-05-09 20:13:00,65.6,61.3,29.94,South,187,0.0,0.0,86,0.00,,SCT080,0.04,VWS V14.01,2013-05-10 00:13:00,
2013-05-09 20:18:00,65.6,61.3,29.94,South,189,0.0,1.0,86,0.00,,SCT080,0.04,VWS V14.01,2013-05-10 00:18:00,
2013-05-09 20:23:00,65.7,61.7,29.94,SW,217,0.0,2.0,87,0.00,,SCT080,0.04,VWS V14.01,2013-05-10 00:23:00,
2013-05-09 20:28:00,65.7,62.0,29.94,SW,217,0.0,0.0,88,0.00,,SCT080,0.04,VWS V14.01,2013-05-10 00:28:00,
2013-05-09 20:33:00,65.7,62.0,29.94,SW,217,0.0,0.0,88,0.00,,SCT080,0.04,VWS V14.01,2013-05-10 00:33:00,
2013-05-09 20:38:00,65.7,62.0,29.94,SW,217,0.0,0.0,88,0.00,,SCT080,0.04,VWS V14.01,2013-05-10 00:38:00,
2013-05-09 20:43:00,65.7,62.4,29.94,SSE,161,3.0,5.0,89,0.00,,SCT080,0.04,VWS V14.01,2013-05-10 00:43:00,
2013-05-09 20:48:00,65.8,62.5,29.94,South,173,1.0,6.0,89,0.00,,SCT080,0.04,VWS V14.01,2013-05-10 00:48:00,
2013-05-09 20:53:00,65.8,62.5,29.94,SSE,167,3.0,5.0,89,0.00,,SCT080,0.04,VWS V14.01,2013-05-10 00:53:00,
2013-05-09 20:58:00,65.9,62.6,29.94,South,176,2.0,5.0,89,0.00,,SCT080,0.04,VWS V14.01,2013-05-10 00:58:00,
2013-05-09 21:03:00,65.9,62.6,29.94,South,171,6.0,6.0,89,0.00,,SCT080,0.04,VWS V14.01,2013-05-10 01:03:00,
2013-05-09 21:08:00,65.9,62.6,29.95,SSE,163,5.0,7.0,89,0.00,,SCT080,0.04,VWS V14.01,2013-05-10 01:08:00,
2013-05-09 21:13:00,65.8,62.5,29.95,SSE,165,0.0,3.0,89,0.00,,SCT080,0.04,VWS V14.01,2013-05-10 01:13:00,
2013-05-09 21:18:00,65.7,62.4,29.95,SSE,165,1.0,4.0,89,0.00,,SCT080,0.04,VWS V14.01,2013-05-10 01:18:00,
2013-05-09 21:23:00,65.6,62.3,29.95,South,180,3.0,7.0,89,0.00,,SCT080,0.04,VWS V14.01,2013-05-10 01:23:00,
2013-05-09 21:28:00,65.5,62.2,29.95,South,170,4.0,4.0,89,0.00,,SCT080,0.04,VWS V14.01,2013-05-10 01:28:00,
2013-05-09 21:33:00,65.5,62.2,29.95,South,171,0.0,2.0,89,0.00,,SCT080,0.04,VWS V14.01,2013-05-10 01:33:00,
2013-05-09 21:38:00,65.4,62.1,29.96,South,175,0.0,5.0,89,0.00,,SCT080,0.04,VWS V14.01,2013-05-10 01:38:00,
2013-05-09 21:43:00,65.3,62.0,29.96,South,173,2.0,5.0,89,0.00,,SCT090,0.04,VWS V14.01,2013-05-10 01:43:00,
2013-05-09 21:48:00,65.3,62.0,29.96,South,173,0.0,0.0,89,0.00,,SCT090,0.04,VWS V14.01,2013-05-10 01:48:00,
2013-05-09 21:53:00,65.1,62.1,29.96,South,177,0.0,3.0,90,0.00,,SCT090,0.04,VWS V14.01,2013-05-10 01:53:00,
2013-05-09 21:58:00,65.0,62.0,29.97,South,176,1.0,4.0,90,0.00,,SCT090,0.04,VWS V14.01,2013-05-10 01:58:00,
2013-05-09 22:03:00,64.8,61.8,29.97,South,179,0.0,3.0,90,0.00,,SCT090,0.04,VWS V14.01,2013-05-10 02:03:00,
2013-05-09 22:08:00,64.6,61.6,29.97,SSW,206,1.0,4.0,90,0.00,,SCT090,0.04,VWS V14.01,2013-05-10 02:08:00,
2013-05-09 22:13:00,64.5,61.5,29.97,South,179,3.0,3.0,90,0.00,,SCT090,0.04,VWS V14.01,2013-05-10 02:13:00,
2013-05-09 22:18:00,64.4,61.4,29.97,South,177,0.0,3.0,90,0.00,,SCT090,0.04,VWS V14.01,2013-05-10 02:18:00,
2013-05-09 22:23:00,64.4,61.4,29.96,South,177,0.0,0.0,90,0.00,,SCT090,0.04,VWS V14.01,2013-05-10 02:23:00,
2013-05-09 22:28:00,64.3,61.3,29.96,South,176,0.0,3.0,90,0.00,,SCT090,0.04,VWS V14.01,2013-05-10 02:28:00,
2013-05-09 22:33:00,64.2,61.5,29.96,South,175,3.0,3.0,91,0.00,,SCT090,0.04,VWS V14.01,2013-05-10 02:33:00,
2013-05-09 22:38:00,64.1,61.4,29.96,South,173,0.0,4.0,91,0.00,,SCT090,0.04,VWS V14.01,2013-05-10 02:38:00,
2013-05-09 22:43:00,63.9,61.2,29.96,South,173,1.0,1.0,91,0.00,,SCT090,0.04,VWS V14.01,2013-05-10 02:43:00,
2013-05-09 22:48:00,63.8,61.4,29.97,South,173,0.0,0.0,92,0.00,,SCT090,0.04,VWS V14.01,2013-05-10 02:48:00,
2013-05-09 22:53:00,63.6,61.2,29.97,South,174,0.0,2.0,92,0.00,,SCT090,0.04,VWS V14.01,2013-05-10 02:53:00,
2013-05-09 22:58:00,63.5,61.1,29.96,South,174,0.0,0.0,92,0.00,,SCT090,0.04,VWS V14.01,2013-05-10 02:58:00,
2013-05-09 23:03:00,63.4,61.0,29.96,South,174,0.0,0.0,92,0.00,,SCT090,0.04,VWS V14.01,2013-05-10 03:03:00,
2013-05-09 23:08:00,63.3,60.9,29.96,South,174,0.0,0.0,92,0.00,,SCT090,0.04,VWS V14.01,2013-05-10 03:08:00,
2013-05-09 23:13:00,63.4,61.0,29.96,South,174,0.0,0.0,92,0.00,,SCT090,0.04,VWS V14.01,2013-05-10 03:13:00,
2013-05-09 23:18:00,63.5,61.1,29.96,South,174,0.0,0.0,92,0.00,,SCT090,0.04,VWS V14.01,2013-05-10 03:18:00,
2013-05-09 23:23:00,63.5,61.1,29.96,South,173,0.0,0.0,92,0.00,,SCT090,0.04,VWS V14.01,2013-05-10 03:23:00,
2013-05-09 23:28:00,63.4,61.0,29.96,South,172,0.0,0.0,92,0.00,,SCT090,0.04,VWS V14.01,2013-05-10 03:28:00,
2013-05-09 23:33:00,63.3,60.9,29.96,South,172,0.0,0.0,92,0.00,,SCT090,0.04,VWS V14.01,2013-05-10 03:33:00,
2013-05-09 23:38:00,63.2,60.8,29.96,South,173,0.0,2.0,92,0.00,,SCT090,0.04,VWS V14.01,2013-05-10 03:38:00,
2013-05-09 23:43:00,63.2,60.8,29.96,South,173,0.0,0.0,92,0.00,,CLR,0.04,VWS V14.01,2013-05-10 03:43:00,
2013-05-09 23:48:00,63.2,60.8,29.96,South,174,0.0,0.0,92,0.00,,CLR,0.04,VWS V14.01,2013-05-10 03:48:00,
2013-05-09 23:53:00,63.2,60.8,29.96,South,174,0.0,2.0,92,0.00,,CLR,0.04,VWS V14.01,2013-05-10 03:53:00,
2013-05-09 23:58:00,63.3,60.6,29.96,South,177,0.0,1.0,91,0.00,,CLR,0.04,VWS V14.01,2013-05-10 03:58:00,